Mossel Bay Extension 7, South Africa

1:39 AM SAST on August 25, 2016 (GMT +0200)
Heiderand, Mossel Bay, South Africa Sorry OUtside Sensor is not working | | Change Station

Elev 558 ft 34.19 °S, 22.11 °E | Updated 49 days ago

Clear
Clear
50 °F
Feels Like 50 °F
N
4
Wind Variable Wind from WNW
Gusts mph

Today
High -- | Low -- °F
--% Chance of Precip.
Yesterday
High -- | Low -- °F
Precip. -- in
Pressure 30.18 in
Visibility -9999.0 miles
Clouds
Dew Point 43 °F
Humidity 75%
Rainfall in
Snow Depth Not available.
6:58 AM 6:08 PM
Waning Gibbous, 52% visible
METAR FAGG 242300Z AUTO 33003KT CAVOK 08/07 Q1022
Pressure 30.18 in
Visibility -9999.0 miles
Clouds
Dew Point 43 °F
Humidity 75%
Rainfall in
Snow Depth Not available.
6:58 AM 6:08 PM
Waning Gibbous, 52% visible
METAR FAGG 242300Z AUTO 33003KT CAVOK 08/07 Q1022

10-Day Weather Forecast

No radar image for this location.
×

Almanac

Astronomy

Aug. 25, 2016 Rise Set
Actual Time
Civil Twilight
Nautical Twilight
Astronomical Twilight
Moon
Length of Visible Light
Length of Day
Tomorrow will be .
, % of the Moon is Illuminated

Today's Extremes

Country Highs Country Lows

Community

WunderPhotos

Upload Photos

1,934,738 photos uploaded!

WunderBlog® & News

Nearby

Air Quality

  Air Quality AQ Index Pollutant
Not available.

Snow Depth

Station Depth Elevation

Earthquake Activity

City Distance Mag. Time & Date
Minimum magnitude displayed is 2.5.

Coastal Water Temperatures

Place Temperature

Stations

Nearby Weather Stations

Station Location Temp. Windchill Dew Point Humidity Wind Precip. Elev Updated Type